Sawyer County Airport Hayward US
ICAO: KHYR
IATA: HYR
Category: Medium
Scheduled Services: No

Elevation: 1216 ft
TransAlt. 18000 ft.

Airport Communications:
MINNEAPOLIS CNTR:126.45
ASOS:113.4
GREEN BAY RDO:113.4
CTAF/UNICOM:122.8

KHYR Zoom In..

If Map Doesn't Load, Click Here

Runways:

(A) RW 02 length 5002 ft width 100 ft
LOC 108.50 / hdg 25

(B) RW 16 length 1090 ft width 110 ft
LOC 108.50 / hdg 163

(C) RW 20 length 5002 ft width 100 ft
LOC 108.50 / hdg 205

(D) RW 34 length 1090 ft width 110 ft
LOC 108.50 / hdg 343

Location; KHYR
Day. 23 / Time. 21.53 Zulu
* Altimeter: 30.06
* Temperature: 16° c. 60.8°f.
* Wind from: 040° Speed 15 kn.
Dewpoint: 12° c.
Visibility: 10 Statute Miles.
Clouds: Clear (automated report).

KHYR 232153Z AUTO 04015KT 10SM CLR 16/12 A3006 RMK AO2 SLP184 T01560117


Wind From 040°
Speed 15 kn.

 
 
jpsmedia.com for Web Design worldairports.se 2018   terms of use